x

9410230 - La Jolla, Ca (ljac1) Weather Station

12:54 - Fri 25th Jul 2014 All times are PDT. -7 hours from GMT.

  • Wind
    14mph, 16mph gusts
  • Sea Temp 70°f
  • Luft Temp 71°f
  • Sea Pressure 1013.1mb
  • 9410230 - La Jolla, Ca
  • 9410230 - La Jolla, Ca

More Historic Weather Station data

Upgrade to MSW Pro to gain access to the past 30 days of data for over 8000 Wavebouys and Weather Stations around the globe.

Join Pro

Comparision Forecast

View Surf forecast
   
Fr 07/25 12:54 14 16 mph 1013.1mb 70f 71f
12:48 15 17 mph 1013.2mb 70f 70f
12:42 15 17 mph 1013.2mb 70f 71f
12:36 15 17 mph 1013.3mb 70f 71f
12:30 13 17 mph 1013.3mb 70f 71f
12:24 13 16 mph 1013.3mb 70f 71f
12:18 15 17 mph 1013.4mb 70f 71f
12:12 15 17 mph 1013.3mb 70f 70f
12:06 14 15 mph 1013.3mb 70f 70f
12:00 14
mph
1013.2mb 70f 70f
11:54 13 14 mph 1013.2mb 70f 70f
11:48 10 11 mph 1013.1mb 70f 70f
11:42 10 11 mph 1013mb 70f 70f
11:36 9 10 mph 1013mb 70f 70f
11:30 8 9 mph 1013.1mb 71f 70f
11:24 9 10 mph 1013.1mb 71f 70f
11:18 9 10 mph 1013.1mb 71f 70f
11:12 8 10 mph 1013mb 70f 70f
11:06 7 8 mph 1013mb 70f 70f
11:00 6 8 mph 1012.9mb 71f 70f
10:54 8 9 mph 1013mb 70f 70f
10:48 8
mph
1012.9mb 70f 70f
10:42 6 7 mph 1012.9mb 69f 71f
10:36 6
mph
1012.8mb 70f 71f
10:30 3 5 mph 1012.8mb 69f 71f
10:24 5 6 mph 1012.8mb 70f 71f
10:18 5 6 mph 1012.9mb 69f 71f
10:12 5 6 mph 1012.9mb 69f 70f
10:06 6
mph
1012.9mb 68f 70f
10:00 6 8 mph 1012.8mb 68f 70f
9:54 7 8 mph 1012.8mb 68f 70f
9:48 7 8 mph 1012.7mb 68f 70f
9:42 6 7 mph 1012.6mb 67f 70f
9:36 6 7 mph 1012.7mb 67f 70f
9:30 7 8 mph 1012.7mb 67f 70f
9:24 7 8 mph 1012.6mb 67f 70f
9:18 7 8 mph 1012.6mb 65f 70f
9:12 6
mph
1012.6mb 64f 70f
9:06 6
mph
1012.6mb 65f 70f
9:00 5 6 mph 1012.5mb 64f 70f
8:54 3
mph
1012.4mb 64f 70f
8:48 2
mph
1012.3mb 63f 71f
8:42 1 3 mph 1012.3mb 64f 70f
8:36 2 3 mph 1012.2mb 64f 70f
8:30 3 5 mph 1012.2mb 65f 70f
8:24 2 5 mph 1012.2mb 65f 70f
8:18 3
mph
1012.1mb 66f 70f
8:12 3 5 mph 1012.1mb 67f 70f
8:06 1 2 mph 1012.2mb 69f 70f
8:00 2 5 mph 1012.1mb 69f 70f
7:54 3 5 mph 1012.1mb 69f 70f
7:48 2
mph
1012.1mb 69f 70f
7:42 2 5 mph 1012.1mb 70f 70f
7:36 5
mph
1012mb 69f 70f
7:30 3
mph
1011.9mb 69f 69f
7:24 2 3 mph 1011.9mb 68f 69f
7:18 3
mph
1011.9mb 68f 69f
7:12 3
mph
1011.8mb 68f 69f
7:06 2 5 mph 1011.8mb 68f 69f
7:00 5 6 mph 1011.8mb 67f 69f
6:54 3 5 mph 1011.8mb 67f 69f
6:48 2 5 mph 1011.7mb 67f 69f
6:42 5
mph
1011.8mb 67f 69f
6:36 3 5 mph 1011.8mb 67f 69f
6:30 1 3 mph 1011.7mb 67f 69f
6:24 2 5 mph 1011.7mb 67f 69f
6:18 3 5 mph 1011.5mb 67f 69f
6:12 3 5 mph 1011.5mb 67f 69f
6:06 3 6 mph 1011.5mb 67f 69f
6:00 5 7 mph 1011.6mb 67f 69f
5:54 6 7 mph 1011.6mb 67f 69f
5:48 5 6 mph 1011.6mb 66f 69f
5:42 3 5 mph 1011.6mb 66f 69f
5:36 5 7 mph 1011.6mb 66f 69f
5:30 6 8 mph 1011.6mb 66f 69f
5:24 7 8 mph 1011.5mb 67f 69f
5:18 5 8 mph 1011.6mb 67f 69f
5:12 7 8 mph 1011.7mb 68f 69f
5:06 7 9 mph 1011.7mb 68f 69f
5:00 8 10 mph 1011.7mb 69f 69f
4:54 7 10 mph 1011.6mb 71f 69f
4:48 8 10 mph 1011.6mb 71f 69f
4:42 8 10 mph 1011.6mb 71f 69f
4:36 6 9 mph 1011.5mb 71f 69f
4:30 7 10 mph 1011.4mb 71f 69f
4:24 7 13 mph 1011.4mb 71f 69f
4:18 7 11 mph 1011.5mb 71f 69f
4:12 10 14 mph 1011.5mb 71f 69f
4:06 8 11 mph 1011.5mb 71f 69f
4:00 10 13 mph 1011.5mb 72f 69f
3:54 10 14 mph 1011.6mb 72f 69f
3:48 8 11 mph 1011.6mb 72f 69f
3:42 8 10 mph 1011.4mb 71f 69f
3:36 8 10 mph 1011.4mb 71f 69f
3:30 7 10 mph 1011.4mb 71f 69f
3:24 9 11 mph 1011.4mb 71f 69f
3:18 8 10 mph 1011.4mb 71f 69f
3:12 9 11 mph 1011.3mb 71f 70f
3:06 7 11 mph 1011.3mb 71f 70f
3:00 7 10 mph 1011.4mb 71f 70f
2:54 8 11 mph 1011.4mb 71f 70f
2:48 10 11 mph 1011.4mb 71f 70f
2:42 9 11 mph 1011.4mb 71f 70f
2:36 9 11 mph 1011.4mb 71f 70f
2:30 8 10 mph 1011.4mb 71f 70f
2:24 6 9 mph 1011.5mb 70f 70f
2:18 8 10 mph 1011.6mb 70f 70f
2:12 6 9 mph 1011.5mb 70f 70f
2:06 8 14 mph 1011.5mb 69f 70f
2:00 9 13 mph 1011.7mb 71f 70f
1:54 9 11 mph 1011.7mb 72f 71f
1:48 8 10 mph 1011.7mb 72f 71f
1:42 8 11 mph 1011.7mb 72f 71f
1:36 10 13 mph 1011.7mb 72f 71f
1:30 8 16 mph 1011.6mb 71f 71f
1:24 10 15 mph 1011.6mb 71f 71f
1:18 8 11 mph 1011.7mb 71f 71f
1:12 7 11 mph 1011.7mb 70f 71f
1:06 7 11 mph 1011.7mb 71f 71f
1:00 7 13 mph 1011.7mb 71f 71f
12:54 10 13 mph 1011.8mb 72f 71f
12:48 9 11 mph 1011.7mb 72f 71f
12:42 10 14 mph 1011.7mb 71f 71f
12:36 6 8 mph 1011.6mb 71f 71f
12:30 5 7 mph 1011.6mb 72f 71f
12:24 6 8 mph 1011.5mb 72f 71f
12:18 6 8 mph 1011.4mb 72f 71f
12:12 6 8 mph 1011.4mb 72f 71f
12:06 7 13 mph 1011.4mb 72f 71f
12:00 8 11 mph 1011.4mb 71f 71f
Do 07/24 11:54 6 8 mph 1011.4mb 71f 71f
11:48 7 11 mph 1011.3mb 71f 71f
11:42 10 13 mph 1011.2mb 71f 71f
11:36 7 10 mph 1011.2mb 71f 71f
11:30 7 8 mph 1011.1mb 71f 71f
11:24 2 3 mph 1010.9mb 71f 71f
11:18 1 2 mph 1010.8mb 70f 71f
11:12  -  2 mph 1010.8mb 69f 71f
11:06  -  2 mph 1010.7mb 69f 71f
11:00 2 3 mph 1010.7mb 68f 71f
10:54  -  1 mph 1010.7mb 68f 71f
10:48  -  2 mph 1010.7mb 68f 71f
10:42 2 5 mph 1010.7mb 68f 71f
10:36 5
mph
1010.8mb 68f 71f
10:30 3 6 mph 1010.8mb 68f 71f
10:24 6 7 mph 1010.8mb 68f 71f
10:18 7 9 mph 1010.7mb 68f 71f
10:12 8 10 mph 1010.6mb 68f 71f
10:06 9 11 mph 1010.4mb 68f 71f
10:00 10 11 mph 1010.4mb 68f 71f
9:54 10 11 mph 1010.4mb 68f 71f
9:48 10 11 mph 1010.3mb 68f 71f
9:42 9 10 mph 1010.2mb 68f 71f
9:36 8 9 mph 1010.1mb 68f 71f
9:30 7 9 mph 1010mb 68f 72f
9:24 8 9 mph 1010mb 68f 71f
9:18 9 10 mph 1009.9mb 68f 71f
9:12 8 9 mph 1009.9mb 68f 72f
9:06 6 8 mph 1009.8mb 68f 72f
9:00 6 7 mph 1009.7mb 68f 72f
8:54 6 7 mph 1009.6mb 69f 72f
8:48 7
mph
1009.6mb 69f 71f
8:42 6
mph
1009.5mb 69f 72f
8:36 6
mph
1009.3mb 69f 72f
8:30 5
mph
1009.2mb 69f 72f
8:24 3 5 mph 1009.1mb 70f 72f
8:18 2 3 mph 1009mb 70f 72f
8:12 2 3 mph 1008.9mb 71f 72f
8:06 2
mph
1008.9mb 71f 72f
8:00 2
mph
1008.8mb 71f 72f
7:54  -  1 mph 1008.7mb 71f 73f
7:48  -  1 mph 1008.7mb 71f 73f
7:42  -  1 mph 1008.6mb 72f 73f
7:36  -  1 mph 1008.4mb 72f 73f
7:30  -  2 mph 1008.4mb 72f 73f
7:24 2 3 mph 1008.3mb 72f 74f
7:18 2 3 mph 1008.2mb 71f 73f
7:12 2 3 mph 1008.2mb 71f 73f
7:06 2 3 mph 1008mb 71f 74f
7:00 3
mph
1007.9mb 71f 73f
6:54 2 5 mph 1007.8mb 71f 73f
6:48 3
mph
1007.9mb 71f 73f
6:42 3 5 mph 1007.9mb 71f 74f
6:36 3
mph
1008mb 72f 74f
6:30 2 3 mph 1007.9mb 72f 74f
6:24 2
mph
1007.9mb 72f 75f
6:18 2
mph
1007.9mb 72f 75f
6:12 1 2 mph 1007.9mb 71f 76f
6:06  -  2 mph 1007.9mb 71f 76f
6:00  -  1 mph 1007.8mb 72f 77f
5:54  -  2 mph 1007.8mb 73f 76f
5:48 1 2 mph 1007.8mb 73f 76f
5:42 1
mph
1007.8mb 73f 76f
5:36 1 2 mph 1007.9mb 72f 75f
5:30 2
mph
1007.8mb 72f 74f
5:24 1 2 mph 1007.8mb 72f 75f
5:18  -  2 mph 1007.9mb 72f 76f
5:12 1 2 mph 1007.9mb 72f 76f
5:06 1 2 mph 1007.9mb 72f 76f
5:00  -  1 mph 1008.1mb 71f 75f
4:54  -  1 mph 1008.2mb 71f 74f
4:48 1 2 mph 1008.2mb 71f 74f
4:42 1 2 mph 1008.2mb 72f 73f
4:36 2
mph
1008.3mb 71f 73f
4:30 2
mph
1008.4mb 71f 73f
4:24 2
mph
1008.4mb 71f 73f
4:18 2 5 mph 1008.4mb 70f 73f
4:12 3 5 mph 1008.5mb 70f 73f
4:06 3 5 mph 1008.6mb 69f 73f
4:00 3 5 mph 1008.7mb 69f 73f
3:54 2 3 mph 1008.7mb 69f 74f
3:48 2
mph
1008.8mb 69f 74f
3:42 2 5 mph 1008.8mb 68f 74f
3:36 3 5 mph 1008.9mb 68f 75f
3:30 2 5 mph 1008.9mb 69f 74f
3:24 2 3 mph 1009mb 69f 75f
3:18 2 5 mph 1009.1mb 68f 74f
3:12 2 3 mph 1009.2mb 68f 74f
3:06 2 3 mph 1009.3mb 68f 74f
3:00 3 6 mph 1009.4mb 67f 73f
2:54 3 7 mph 1009.3mb 67f 73f
2:48 6
mph
1009.3mb 68f 72f
2:42 5 6 mph 1009.3mb 68f 73f
2:36 5 6 mph 1009.4mb 69f 73f
2:30 5 6 mph 1009.5mb 69f 73f
2:24 5 6 mph 1009.6mb 69f 73f
2:18 5 6 mph 1009.6mb 69f 73f
2:12 5 6 mph 1009.6mb 71f 73f
2:06 3 6 mph 1009.6mb 71f 74f
2:00 5 6 mph 1009.6mb 71f 73f
1:54 3 6 mph 1009.6mb 71f 73f
1:48 5 6 mph 1009.7mb 71f 72f
1:42 5 6 mph 1009.7mb 71f 72f
1:36 5 6 mph 1009.7mb 70f 71f
1:30 5 6 mph 1009.7mb 70f 71f
1:24 5 6 mph 1009.8mb 70f 71f
1:18 6 7 mph 1009.9mb 70f 71f
1:12 7
mph
1010mb 70f 71f
1:06 7 8 mph 1010.1mb 70f 71f
1:00 6 8 mph 1010.1mb 70f 71f
12:54 6 7 mph 1010.1mb 69f 71f
12:48 6 7 mph 1010.2mb 70f 72f
12:42 5 6 mph 1010.1mb 69f 72f
12:36 5 6 mph 1010.2mb 69f 73f
12:30 3 5 mph 1010.2mb 70f 73f
12:24 3 5 mph 1010.2mb 70f 73f
12:18 2 5 mph 1010.3mb 69f 73f
12:12 3 5 mph 1010.4mb 69f 72f
12:06 2 3 mph 1010.4mb 70f 72f
12:00 3 5 mph 1010.4mb 71f 72f
11:54 3 6 mph 1010.4mb 71f 71f
11:48 3 6 mph 1010.5mb 71f 71f
11:42 3 6 mph 1010.5mb 71f 71f
11:36 3 5 mph 1010.5mb 70f 71f
11:30 3 5 mph 1010.5mb 70f 71f
11:24 3 5 mph 1010.4mb 70f 71f
11:18 3 5 mph 1010.4mb 70f 71f
11:12 3 5 mph 1010.5mb 70f 71f
11:06 3 5 mph 1010.6mb 70f 71f
11:00 3 5 mph 1010.7mb 70f 72f
10:54 2 3 mph 1010.7mb 70f 72f
10:48 2 3 mph 1010.7mb 70f 72f
10:42 2 5 mph 1010.8mb 70f 72f
10:36 3 5 mph 1010.8mb 70f 71f
10:30 3 5 mph 1011mb 70f 71f
10:24 2 3 mph 1011.1mb 69f 72f
10:18 3 5 mph 1011.2mb 68f 71f
10:12 3
mph
1011.2mb 68f 71f
10:06 1 5 mph 1011.2mb 68f 72f
10:00 1 3 mph 1011.3mb 68f 72f
9:54 1 3 mph 1011.3mb 68f 72f
9:48 1 5 mph 1011.3mb - 72f
9:42 2 5 mph 1011.4mb - 72f
9:36 1 5 mph 1011.3mb - 71f
9:30 2
mph
1011.3mb 66f 71f
9:24 1 3 mph 1011.3mb 66f 70f
9:18 3 5 mph 1011.4mb 66f 70f
9:12 1 3 mph 1011.4mb 65f 71f
9:06  -  5 mph 1011.6mb 64f 70f
9:00 5
mph
1011.6mb 64f 69f
8:54 3 5 mph 1011.5mb 64f 70f
8:48 2 3 mph 1011.6mb 64f 70f
8:42 1 3 mph 1011.6mb 64f 70f
8:36 3
mph
1011.5mb 64f 70f
8:30 2 3 mph 1011.6mb 64f 70f
8:24  -  2 mph 1011.7mb 64f 70f
8:18 1 2 mph 1011.6mb 64f 70f
8:12 2
mph
1011.6mb 64f 70f
8:06  -  2 mph 1011.7mb 64f 70f
8:00 2 3 mph 1011.6mb 64f 69f
7:54 1 2 mph 1011.6mb 64f 69f
7:48  -  1 mph 1011.5mb 64f 69f
7:42  -  mph 1011.5mb 64f 69f
7:36  -  1 mph 1011.5mb 64f 69f
7:30 2 3 mph 1011.5mb 64f 69f
7:24  -  2 mph 1011.4mb 65f 69f
7:18 2 5 mph 1011.4mb 65f 69f
7:12  -  5 mph 1011.4mb 65f 69f
7:06 3 5 mph 1011.2mb 66f 69f
7:00 3
mph
1011.2mb 65f 69f
6:54 2 6 mph 1011.1mb 65f 69f
6:48 3 6 mph 1011mb 65f 69f
6:42 3 6 mph 1010.9mb 65f 69f
6:36 5 6 mph 1011mb 66f 69f
6:30 3 5 mph 1010.9mb 67f 69f
6:24 2 3 mph 1010.9mb 68f 69f
6:18 2
mph
1011mb 69f 69f
6:12  -  2 mph 1011mb 69f 69f
6:06 1 5 mph 1011mb 70f 69f
6:00 3 5 mph 1011mb 70f 69f
5:54 2 3 mph 1011mb 70f 69f
5:48 2
mph
1011.1mb 70f 69f
5:42 2 3 mph 1011.1mb 70f 69f
5:36 1 2 mph 1011.1mb 70f 69f
5:30  -  2 mph 1011.1mb 70f 69f
5:24  -  2 mph 1011.1mb 70f 69f
5:18  -  1 mph 1011.1mb 70f 69f
5:12 1 2 mph 1011mb 70f 69f
5:06 2 3 mph 1011.1mb 70f 69f
5:00 2 3 mph 1011mb 70f 69f
4:54 2 5 mph 1011mb 70f 69f
4:48 1 2 mph 1011mb 70f 69f
4:42  -  1 mph 1011mb 70f 69f
4:36  -  mph 1011mb 70f 69f
4:30  -  mph 1011mb 70f 69f
4:24  -  mph 1011mb 70f 69f
4:18  -  mph 1011mb 69f 69f
4:12  -  1 mph 1011mb 69f 69f
4:06  -  2 mph 1011mb 69f 69f
4:00 2
mph
1011mb 69f 69f
3:54 1
mph
1011.1mb 69f 69f
3:48  -  1 mph 1011.1mb 69f 69f
3:42  -  1 mph 1011.1mb 69f 69f
3:36  -  1 mph 1011.1mb 69f 69f
3:30  -  1 mph 1011.1mb 69f 69f
3:24 1 2 mph 1011.1mb 69f 69f
3:18 2
mph
1011.2mb 69f 69f
3:12 2
mph
1011.3mb 69f 69f
3:06 2
mph
1011.4mb 69f 69f
3:00 2
mph
1011.4mb 68f 69f
2:54  -  1 mph 1011.4mb 69f 69f
2:48  -  mph 1011.4mb 68f 69f
2:42  -  1 mph 1011.4mb 68f 69f
2:36  -  mph 1011.4mb 68f 69f
2:30  -  2 mph 1011.5mb 69f 69f
2:24 2
mph
1011.6mb 68f 69f
2:18  -  1 mph 1011.7mb 68f 69f
2:12  -  2 mph 1011.7mb 69f 69f
2:06 1 2 mph 1011.7mb 69f 69f
2:00 2 3 mph 1011.7mb 69f 70f
1:54 2 3 mph 1011.8mb 69f 70f
1:48 2 3 mph 1011.8mb 69f 70f
1:42 3 5 mph 1011.8mb 69f 70f
1:36 3 5 mph 1011.9mb 69f 70f
1:30 3 5 mph 1012mb 69f 70f
1:24 3
mph
1012.1mb 69f 70f
1:18 3
mph
1012.1mb 69f 70f
1:12 3
mph
1012.2mb 69f 70f
1:06 2 3 mph 1012.2mb 69f 70f
1:00 2 3 mph 1012.4mb 69f 70f
12:54 2 3 mph 1012.4mb 70f 70f
12:48 2 3 mph 1012.4mb 71f 70f
12:42 3
mph
1012.5mb 71f 70f
12:36 3
mph
1012.6mb 71f 70f
12:30 3
mph
1012.6mb 71f 70f
12:24 2 3 mph 1012.7mb 71f 70f
12:18 3 5 mph 1012.7mb 71f 70f
12:12 1 2 mph 1012.7mb 71f 69f
12:06 1 2 mph 1012.7mb 71f 69f
12:00 2 3 mph 1012.8mb 71f 69f
Mi 07/23 11:54 1 2 mph 1012.8mb 71f 69f
11:48 2 3 mph 1012.9mb 71f 69f
11:42 1
mph
1012.9mb 71f 69f
11:36 1 3 mph 1012.9mb 71f 69f
11:30 3
mph
1013mb 71f 70f
11:24 2 3 mph 1013mb 71f 70f
11:18 1 2 mph 1013mb 71f 70f
11:12 1 2 mph 1013.1mb 71f 70f
11:06 1 2 mph 1013mb 71f 70f
11:00  -  2 mph 1013mb 71f 70f
10:54 1 2 mph 1013mb 71f 70f
10:48 2
mph
1013mb 71f 70f
10:42 1
mph
1013mb 71f 70f
10:36  -  1 mph 1013mb 71f 70f
10:30  -  1 mph 1013mb 71f 70f
10:24  -  1 mph 1013mb 71f 70f
10:18  -  2 mph 1013mb 71f 70f
10:12 2 3 mph 1012.9mb 71f 70f
10:06 2
mph
1013mb 71f 70f
10:00 1 2 mph 1013mb 71f 70f
9:54  -  1 mph 1013mb 71f 70f
9:48 1
mph
1013mb 71f 70f
9:42  -  mph 1012.9mb 70f 70f
9:36  -  mph 1012.9mb 70f 70f
9:30  -  mph 1012.8mb 70f 70f
9:24  -  1 mph 1012.8mb 70f 70f
9:18  -  1 mph 1012.7mb 70f -
9:12  -  2 mph 1012.7mb 70f -
9:06 2
mph
1012.6mb 70f -
9:00 2
mph
1012.6mb 70f 70f
8:54 2
mph
1012.6mb 70f 70f
8:48 2
mph
1012.5mb 70f 70f
8:42  -  1 mph 1012.6mb 69f 70f
8:36 1
mph
1012.5mb 69f 70f
8:30 1
mph
1012.4mb 69f 70f
8:24  -  mph 1012.4mb 69f 70f
8:18  -  mph 1012.4mb 68f 70f
8:12  -  2 mph 1012.4mb 68f 71f
8:06 1 2 mph 1012.5mb 68f 71f
8:00 1 2 mph 1012.5mb 69f 71f
7:54 2
mph
1012.5mb 69f 71f
7:48 3
mph
1012.6mb 69f 71f
7:42 2 3 mph 1012.6mb 69f 71f
7:36 1 2 mph 1012.5mb 69f 71f
7:30 2
mph
1012.5mb 69f 71f
7:24 2 3 mph 1012.5mb 69f 71f
7:18 3
mph
1012.5mb 69f 71f
7:12 3
mph
1012.5mb 70f 71f
7:06 2
mph
1012.4mb 70f 71f
7:00 2 3 mph 1012.5mb 70f 71f
6:54 2 3 mph 1012.5mb 70f 71f
6:48 2 3 mph 1012.4mb 70f 71f
6:42 3
mph
1012.4mb 69f 71f
6:36 3
mph
1012.5mb 68f 71f
6:30 3 5 mph 1012.6mb 68f 71f
6:24 3 5 mph 1012.5mb 68f 71f
6:18 3 5 mph 1012.5mb 68f 71f
6:12 3 6 mph 1012.6mb 68f 71f
6:06 5 6 mph 1012.7mb 67f 71f
6:00 6 7 mph 1012.7mb 67f 71f
5:54 6 7 mph 1012.7mb 66f 71f
5:48 7
mph
1012.7mb 65f 71f
5:42 7 8 mph 1012.7mb 65f 71f
5:36 7 8 mph 1012.7mb 65f 71f
5:30 7 8 mph 1012.7mb 65f 71f
5:24 7 8 mph 1012.8mb 65f 71f
5:18 7 8 mph 1012.7mb 65f 71f
5:12 7 8 mph 1012.7mb 66f 71f
5:06 7 8 mph 1012.8mb 66f 71f
5:00 7 8 mph 1012.8mb 66f 71f
4:54 7
mph
1013mb 66f 71f
4:48 7 8 mph 1013.1mb 66f 71f
4:42 6 7 mph 1013.1mb 66f 71f
4:36 6 7 mph 1013.1mb 67f 72f
4:30 7
mph
1013.1mb 67f 72f
4:24 6 7 mph 1013.1mb 67f 72f
4:18 6 7 mph 1013.2mb 67f 72f
4:12 5 6 mph 1013.3mb 67f 72f
4:06 6
mph
1013.3mb 67f 72f
4:00 6 7 mph 1013.3mb 67f 72f
3:54 6 7 mph 1013.3mb 69f 72f
3:48 5 6 mph 1013.5mb 69f 72f
3:42 5 6 mph 1013.6mb 69f 72f
3:36 3 6 mph 1013.7mb 69f 73f
3:30 6
mph
1013.7mb 69f 72f
3:24 5 6 mph 1013.8mb 69f 73f
3:18 6 7 mph 1013.9mb 69f 72f
3:12 6 7 mph 1013.9mb 69f 72f
3:06 6 7 mph 1013.9mb 68f 72f
3:00 6 7 mph 1014mb 67f 72f
2:54 3 5 mph 1014.1mb 67f 72f
2:48 5 6 mph 1014.2mb 67f 72f
2:42 5 6 mph 1014.2mb 67f 72f
2:36 5 6 mph 1014.3mb 66f 72f
2:30 5 6 mph 1014.4mb 67f 72f
2:24 6 7 mph 1014.3mb 67f 71f
2:18 6 7 mph 1014.3mb 67f 71f
2:12 6
mph
1014.5mb 67f 72f
2:06 6 7 mph 1014.6mb 67f 72f
2:00 6 7 mph 1014.7mb 68f 72f
1:54 5 7 mph 1014.8mb 68f 72f
1:48 6
mph
1014.9mb 68f 71f
1:42 5 6 mph 1015mb 68f 72f
1:36 6 7 mph 1015.1mb 68f 72f
1:30 5 7 mph 1014.9mb 68f 72f
1:24 6 7 mph 1014.9mb 68f 71f
1:18 5 7 mph 1015mb 68f 72f
1:12 5 7 mph 1015.1mb 67f 72f
1:06 6
mph
1015.1mb 67f 71f
1:00 3 6 mph 1015.2mb 67f 72f
12:54 5 6 mph 1015.3mb 67f 72f
12:48 3 6 mph 1015.4mb 67f 72f
12:42 5 6 mph 1015.4mb 67f 72f
12:36 3 6 mph 1015.4mb 67f 72f
12:30 5
mph
1015.5mb 67f 72f
12:24 3 5 mph 1015.7mb 67f 72f
12:18 3 5 mph 1015.8mb 67f 72f
12:12 3 6 mph 1015.7mb 67f 72f
12:06 5 6 mph 1015.7mb 67f 72f
12:00 3 5 mph 1015.7mb 67f 72f
11:54 3 5 mph 1015.8mb 67f 72f
11:48 3
mph
1015.8mb 67f 72f
11:42 3 5 mph 1015.9mb 67f 72f
11:36 3 5 mph 1016mb 67f 72f
11:30 3 5 mph 1016mb 68f 72f
11:24 2 5 mph 1016mb 68f 73f
11:18 2 5 mph 1016mb 68f 73f
11:12 2 3 mph 1016.1mb 68f 72f
11:06 2 3 mph 1016.2mb 67f 72f
11:00 2 3 mph 1016.2mb 67f 72f
10:54 2
mph
1016.2mb 67f 72f
10:48 2
mph
1016.2mb 67f 72f
10:42 1 2 mph 1016.2mb 67f 72f
10:36 1 3 mph 1016.2mb 68f 72f
10:30 2 3 mph 1016.2mb 68f 72f
10:24 1 2 mph 1016.2mb 68f 72f
10:18  -  1 mph 1016.2mb 69f 72f
10:12  -  2 mph 1016.2mb 69f 72f
10:06 1 2 mph 1016.2mb 69f 71f
10:00 1 2 mph 1016.1mb 68f 71f
9:54 2
mph
1016.1mb 69f 71f
9:48 1 2 mph 1016.1mb 69f 71f
9:42 1 2 mph 1016mb 69f 71f
9:36  -  2 mph 1016mb 69f 71f
9:30 2
mph
1016mb 68f 71f
9:24 1 2 mph 1016mb 68f 71f
9:18 1 2 mph 1016mb 69f 71f
9:12 2
mph
1016.1mb 68f 71f
9:06 1 2 mph 1016.1mb 69f 71f
9:00 1 2 mph 1016.1mb 69f 71f
8:54  -  1 mph 1016.1mb 69f 71f
8:48  -  1 mph 1016.2mb 69f 71f
8:42 2
mph
1016.3mb 68f 71f
8:36 1 2 mph 1016.3mb 68f 71f
8:30 2
mph
1016.3mb 68f 71f
8:24 1 2 mph 1016.3mb 67f 71f
8:18 1 2 mph 1016.3mb 67f 71f
8:12 1
mph
1016.2mb 67f 71f
8:06 1 2 mph 1016.2mb 67f 71f
8:00 1 2 mph 1016.2mb 67f 70f
7:54 1 2 mph 1016.2mb 67f 70f
7:48 1 2 mph 1016.1mb 66f 70f
7:42 2 3 mph 1016mb 64f 69f
7:36 2 3 mph 1016.1mb 61f 69f
7:30 2 3 mph 1016.1mb 60f 69f
7:24 2 3 mph 1016.1mb 61f 69f
7:18 3
mph
1016.2mb 61f 69f
7:12 3 5 mph 1016.2mb 61f 69f
7:06 3
mph
1016.2mb 62f 69f
7:00 2
mph
1016.1mb 62f 68f
6:54 2
mph
1016.1mb 63f 68f
6:48 2
mph
1016mb 63f 67f
6:42 2
mph
1015.9mb 63f 67f
6:36 2 3 mph 1015.8mb 63f 67f
6:30 2 3 mph 1015.8mb 64f 67f
6:24 2 3 mph 1015.7mb 65f 67f
6:18 2
mph
1015.7mb 66f 67f
6:12  -  mph 1015.7mb 67f 66f
6:06  -  1 mph 1015.7mb 67f 66f
6:00  -  1 mph 1015.7mb 68f 67f
5:54 1 2 mph 1015.6mb 68f 67f
5:48 2
mph
1015.6mb 68f 67f
5:42 2 3 mph 1015.6mb 68f 67f
5:36 3
mph
1015.5mb 67f 67f
5:30 3
mph
1015.5mb 65f 67f
5:24 2 3 mph 1015.5mb 64f 67f
5:18 3
mph
1015.5mb 64f 67f
5:12 3 5 mph 1015.5mb 64f 67f
5:06 3 5 mph 1015.5mb 65f 67f
5:00 3 5 mph 1015.5mb 64f 67f
4:54 3
mph
1015.5mb 65f 67f
4:48 3
mph
1015.5mb 65f 67f
4:42 3 5 mph 1015.5mb 65f 67f
4:36 5
mph
1015.5mb 65f 67f
4:30 5
mph
1015.5mb 65f 67f
4:24 3
mph
1015.6mb 66f 67f
4:18 3
mph
1015.6mb 66f 67f
4:12 3
mph
1015.6mb 66f 67f
4:06 3
mph
1015.6mb 67f 67f
4:00 3
mph
1015.6mb 67f 67f
3:54 3
mph
1015.5mb 69f 67f
3:48 2
mph
1015.5mb 69f 67f
3:42 2 3 mph 1015.4mb 69f 67f
3:36 3
mph
1015.5mb 69f 67f
3:30 2 3 mph 1015.7mb 69f 68f
3:24 3
mph
1015.7mb 69f 68f
3:18 2 3 mph 1015.7mb 69f 68f
3:12 2 3 mph 1015.7mb 69f 68f
3:06 2 3 mph 1015.8mb 69f 68f
3:00 3
mph
1015.8mb 69f 68f
2:54 2 3 mph 1015.9mb 69f 68f
2:48 2
mph
1015.9mb 69f 68f
2:42 2 3 mph 1015.9mb 68f 68f
2:36 2 3 mph 1016mb 68f 68f
2:30 2 3 mph 1016mb 68f 68f
2:24 2
mph
1016.1mb 68f 68f
2:18 2 3 mph 1016.1mb 68f 68f
2:12 2
mph
1016.1mb 68f 68f
2:06  -  1 mph 1016.2mb 68f 67f
2:00  -  1 mph 1016.3mb 68f 67f
1:54 1
mph
1016.3mb 68f 68f
1:48  -  1 mph 1016.3mb 68f 68f
1:42  -  1 mph 1016.3mb 69f 68f
1:36 1 2 mph 1016.3mb 70f 68f
1:30  -  1 mph 1016.4mb 70f 68f
1:24  -  1 mph 1016.4mb 70f 68f
1:18  -  1 mph 1016.3mb 70f 68f
1:12  -  1 mph 1016.3mb 70f 68f
1:06  -  1 mph 1016.3mb 70f 68f
1:00  -  1 mph 1016.3mb 70f 68f
12:54  -  1 mph 1016.3mb 70f 68f
12:48  -  1 mph 1016.4mb 70f 69f
12:42  -  1 mph 1016.4mb 70f 69f
12:36 1 2 mph 1016.4mb 70f 69f
12:30  -  1 mph 1016.4mb 70f 69f
12:24  -  1 mph 1016.4mb 70f 69f
12:18  -  1 mph 1016.4mb 70f 69f
12:12  -  1 mph 1016.4mb 70f 69f
12:06 1
mph
1016.3mb 70f 69f
12:00 1 2 mph 1016.4mb 71f 69f
Di 07/22 11:54 1
mph
1016.4mb 71f 69f
11:48  -  1 mph 1016.4mb 71f 69f
11:42 1 2 mph 1016.5mb 71f 69f
11:36 1 2 mph 1016.5mb 71f 69f
11:30 2 3 mph 1016.4mb 71f 69f
11:24 2
mph
1016.4mb 71f 69f
11:18 2
mph
1016.4mb 71f 69f
11:12 2
mph
1016.4mb 71f 69f
11:06 2 3 mph 1016.5mb 70f 69f
11:00 3
mph
1016.4mb 70f 69f
10:54 3
mph
1016.4mb 70f 69f
10:48 3
mph
1016.3mb 70f 69f
10:42 3 5 mph 1016.3mb 70f 69f
10:36 3 5 mph 1016.3mb 70f 69f
10:30 3 5 mph 1016.4mb 70f 70f
10:24 5
mph
1016.4mb 70f 70f
10:18 5
mph
1016.4mb 70f 70f
10:12 3
mph
1016.4mb 70f 70f
10:06 3 5 mph 1016.4mb 70f 70f
10:00 3
mph
1016.4mb 70f 70f
9:54 3 5 mph 1016.5mb 70f 70f
9:48 3 5 mph 1016.5mb 70f 70f
9:42 3 5 mph 1016.4mb 70f 70f
9:36 5
mph
1016.5mb 70f 70f
9:30 5
mph
1016.5mb 70f 70f
9:24 3 5 mph 1016.4mb 70f 70f
9:18 3 5 mph 1016.3mb 70f 70f
9:12 3 5 mph 1016.3mb 70f 70f
9:06 5 6 mph 1016.3mb 70f 70f
9:00 5 6 mph 1016.1mb 69f 70f
8:54 5
mph
1016mb 69f 70f
8:48 5 6 mph 1016mb 69f 70f
8:42 5 6 mph 1016mb 68f 70f
8:36 5 6 mph 1016mb 67f 70f
8:30 6
mph
1015.9mb 67f 70f
8:24 6 7 mph 1015.9mb 66f 70f
8:18 6
mph
1016mb 66f 70f
8:12 6
mph
1015.9mb 65f 70f
8:06 6 7 mph 1015.9mb 65f 70f
8:00 6
mph
1015.8mb 65f 70f
7:54 5 6 mph 1015.8mb 66f 70f
7:48 5 6 mph 1015.7mb 66f 70f
7:42 5 6 mph 1015.7mb 66f 70f
7:36 5 6 mph 1015.7mb 66f 70f
7:30 5 6 mph 1015.7mb 66f 70f
7:24 6
mph
1015.8mb 67f 70f
7:18 6
mph
1015.8mb 67f 70f
7:12 5 6 mph 1015.8mb 68f 70f
7:06 5 6 mph 1015.8mb 69f 70f
7:00 5 6 mph 1015.8mb 69f 70f
6:54 5 6 mph 1015.7mb 69f 70f
6:48 6 7 mph 1015.7mb 69f 70f
6:42 6 7 mph 1015.7mb 69f 70f
6:36 7
mph
1015.6mb 69f 70f
6:30 6 7 mph 1015.7mb 68f 70f
6:24 6 7 mph 1015.8mb 68f 70f
6:18 7 8 mph 1015.8mb 67f 70f
6:12 7 8 mph 1015.8mb 66f 70f
6:06 7 9 mph 1015.8mb 66f 70f
6:00 8 9 mph 1015.9mb 66f 70f
5:54 8 9 mph 1015.9mb 66f 70f
5:48 9 10 mph 1015.9mb 67f 70f
5:42 9 11 mph 1015.9mb 68f 70f
5:36 8 9 mph 1016mb 69f 70f
5:30 8 9 mph 1016mb 69f 70f
5:24 8 9 mph 1016.1mb 69f 70f
5:18 8 9 mph 1016.1mb 69f 70f
5:12 9 10 mph 1016.1mb 69f 70f
5:06 8 10 mph 1016.1mb 69f 70f
5:00 9 10 mph 1016.1mb 69f 70f
4:54 8 9 mph 1016.2mb 68f 70f
4:48 8 10 mph 1016.2mb 68f 70f
4:42 9 10 mph 1016.3mb 67f 70f
4:36 8 10 mph 1016.3mb 67f 70f
4:30 8 9 mph 1016.3mb 67f 70f
4:24 8 9 mph 1016.4mb 65f 70f
4:18 7 9 mph 1016.5mb 65f 71f
4:12 7 8 mph 1016.5mb 64f 71f
4:06 8 9 mph 1016.5mb 64f 70f
4:00 8 9 mph 1016.5mb 64f 70f
3:54 8 10 mph 1016.6mb 65f 70f
3:48 9 10 mph 1016.7mb 65f 70f
3:42 10 13 mph 1016.7mb 65f 70f
3:36 11 13 mph 1016.7mb 65f 70f
3:30 10 13 mph 1016.7mb 65f 70f
3:24 11 14 mph 1016.7mb 66f 70f
3:18 10 13 mph 1016.8mb 66f 70f
3:12 10 13 mph 1016.8mb 67f 70f
3:06 11 13 mph 1016.9mb 67f 70f
3:00 11 13 mph 1016.9mb 67f 70f
2:54 11 13 mph 1017.1mb 67f 70f
2:48 10 11 mph 1017.1mb 66f 70f
2:42 9 11 mph 1017.2mb 66f 71f
2:36 9 11 mph 1017.2mb 66f 71f
2:30 9 10 mph 1017.2mb 66f 71f
2:24 8 9 mph 1017.3mb 66f 71f
2:18 9 10 mph 1017.2mb 66f 70f
2:12 10 11 mph 1017.2mb 66f 70f
2:06 8 9 mph 1017.3mb 67f 70f
2:00 8 10 mph 1017.3mb 67f 70f
1:54 9 10 mph 1017.2mb 67f 70f
1:48 9 11 mph 1017.2mb 67f 70f
1:42 9 10 mph 1017.3mb 67f 70f
1:36 8 11 mph 1017.3mb 67f 70f
1:30 9 10 mph 1017.4mb 67f 70f
1:24 10 11 mph 1017.4mb 67f 69f
1:18 10 11 mph 1017.4mb 67f 69f
1:12 10 13 mph 1017.4mb 67f 69f
1:06 10 11 mph 1017.5mb 67f 69f
1:00 10 13 mph 1017.6mb 67f 69f
12:54 11
mph
1017.7mb 67f 69f
12:48 9 11 mph 1017.7mb 67f 69f
12:42 9 10 mph 1017.8mb 67f 69f
12:36 7 10 mph 1017.8mb 67f 69f
12:30 8 9 mph 1017.8mb 66f 69f
12:24 8 9 mph 1017.9mb 66f 69f
12:18 8 10 mph 1017.9mb 66f 69f
12:12 8 9 mph 1017.9mb 66f 69f
12:06 7 9 mph 1017.9mb 65f 68f
12:00 8 9 mph 1017.9mb 65f 68f
11:54 9
mph
1017.9mb 65f 68f
11:48 8 10 mph 1017.9mb 65f 68f
11:42 8 10 mph 1018mb 65f 68f
11:36 8 10 mph 1018mb 66f 68f
11:30 8 9 mph 1018mb 65f 68f
11:24 9 10 mph 1018.1mb 66f 68f
11:18 8 10 mph 1018mb 66f 68f
11:12 8 10 mph 1018mb 66f 68f
11:06 8 9 mph 1018mb 66f 69f
11:00 8 10 mph 1018mb 66f 68f
10:54 8 10 mph 1018.1mb 66f 68f
10:48 8 9 mph 1018.2mb 66f 68f
10:42 9 10 mph 1018.2mb 67f 68f
10:36 9 10 mph 1018.3mb 67f 68f
10:30 9 10 mph 1018.3mb 67f 68f
10:24 9 10 mph 1018.3mb 67f 68f
10:18 9 10 mph 1018.2mb 68f 68f
10:12 9 10 mph 1018.2mb 69f 68f
10:06 9 10 mph 1018.2mb 70f 68f
10:00 8 10 mph 1018.2mb 70f 68f
9:54 8 10 mph 1018.2mb 70f 68f
9:48 8 9 mph 1018.2mb 70f 68f
9:42 8 9 mph 1018.2mb 70f 68f
9:36 9 11 mph 1018.1mb 69f 67f
9:30 10 13 mph 1018.1mb 69f 67f
9:24 9 11 mph 1018.1mb 69f 67f
9:18 9 11 mph 1018mb 69f 68f
9:12 10 13 mph 1018mb 69f 67f
9:06 10 11 mph 1018mb 69f 68f
9:00 10 11 mph 1018mb 67f 68f
8:54 8 10 mph 1018mb 67f 68f
8:48 9 10 mph 1018mb 67f 68f
8:42 8 10 mph 1017.9mb 67f 68f
8:36 7 8 mph 1017.9mb 67f 68f
8:30 7 9 mph 1017.8mb 66f 67f
8:24 9 10 mph 1017.7mb 66f 67f
8:18 9 10 mph 1017.7mb 66f 67f
8:12 9 10 mph 1017.6mb 65f 67f
8:06 8 9 mph 1017.6mb 64f 67f
8:00 8 9 mph 1017.6mb 62f 67f
7:54 7 9 mph 1017.6mb 61f 67f
7:48 7 8 mph 1017.5mb 61f 67f
7:42 7 9 mph 1017.5mb 61f 67f
7:36 8 9 mph 1017.5mb 61f 67f
7:30 3 5 mph 1017.4mb 61f 67f
7:24 3 6 mph 1017.3mb 61f 67f
7:18 5 7 mph 1017.2mb 61f 67f
7:12 5 6 mph 1017.2mb 61f 67f
7:06 6 8 mph 1017.1mb 61f 67f
7:00 7 9 mph 1017.1mb 62f 67f
6:54 7 10 mph 1017.1mb 62f 67f
6:48 8 10 mph 1017mb 62f 67f
6:42 7 8 mph 1017mb 62f 67f
6:36 7 8 mph 1017mb 62f 67f
6:30 9 11 mph 1016.9mb 63f 67f
6:24 9 10 mph 1016.8mb 63f 67f
6:18 8 9 mph 1016.8mb 63f 67f
6:12 5 9 mph 1016.8mb 64f 67f
6:06 6 7 mph 1016.8mb 64f 67f
6:00 6 9 mph 1016.7mb 64f 67f
5:54 8 10 mph 1016.7mb 63f 67f
5:48 10 13 mph 1016.8mb 63f 67f
5:42 10 13 mph 1016.7mb 63f 67f
5:36 8 9 mph 1016.7mb 63f 67f
5:30 7 9 mph 1016.6mb 63f 67f
5:24 9 10 mph 1016.6mb 63f 67f
5:18 9 10 mph 1016.6mb 63f 67f
5:12 9
mph
1016.6mb 63f 67f
5:06 8 9 mph 1016.6mb 63f 67f
5:00 9
mph
1016.7mb 63f 67f
4:54 9 10 mph 1016.7mb 63f 67f
4:48 9 13 mph 1016.7mb 63f 67f
4:42 11 13 mph 1016.8mb 63f 68f
4:36 11 15 mph 1016.8mb 63f 67f
4:30 11 14 mph 1016.7mb 63f 68f
4:24 13 14 mph 1016.7mb 64f 67f
4:18 10 13 mph 1016.7mb 64f 68f
4:12 10 13 mph 1016.7mb 64f 68f
4:06 10 14 mph 1016.7mb 64f 68f
4:00 10 13 mph 1016.7mb 64f 68f
3:54 11 13 mph 1016.7mb 64f 68f
3:48 10 11 mph 1016.8mb 64f 68f
3:42 9 10 mph 1016.8mb 64f 68f
3:36 9 10 mph 1016.7mb 64f 68f
3:30 8 10 mph 1016.7mb 64f 68f
3:24 9
mph
1016.8mb 64f 69f
3:18 8 9 mph 1016.8mb 64f 69f
3:12 8 10 mph 1016.7mb 64f 69f
3:06 9 10 mph 1016.7mb 64f 69f
3:00 9 10 mph 1016.7mb 64f 69f
2:54 8 13 mph 1016.7mb 64f 69f
2:48 9 10 mph 1016.7mb 64f 69f
2:42 8 9 mph 1016.7mb 64f 69f
2:36 9 11 mph 1016.7mb 65f 68f
2:30 8 10 mph 1016.7mb 65f 69f
2:24 8 9 mph 1016.8mb 66f 69f
2:18 6 7 mph 1016.8mb 68f 69f
2:12 6 9 mph 1016.7mb 69f 69f
2:06 6 7 mph 1016.7mb 71f 69f
2:00 5 8 mph 1016.7mb 71f 69f
1:54 6 7 mph 1016.6mb 70f 69f
1:48 7 9 mph 1016.6mb 70f 69f
1:42 6 8 mph 1016.5mb 70f 69f
1:36 7 8 mph 1016.4mb 71f 69f
1:30 6 8 mph 1016.4mb 71f 69f
1:24 6 7 mph 1016.4mb 71f 69f
1:18 6 7 mph 1016.4mb 71f 69f
1:12 7 9 mph 1016.4mb 71f 69f
1:06 7 9 mph 1016.4mb 71f 69f
1:00 7 9 mph 1016.5mb 71f 69f
12:54 6 10 mph 1016.4mb 71f 69f
12:48 7 9 mph 1016.5mb 71f 69f
12:42 7 9 mph 1016.5mb 71f 69f
12:36 7 9 mph 1016.5mb 71f 69f
12:30 7 10 mph 1016.4mb 71f 69f
12:24 9 11 mph 1016.4mb 71f 69f
12:18 7 9 mph 1016.4mb 71f 69f
12:12 7 8 mph 1016.4mb 71f 69f
12:06 7 8 mph 1016.4mb 71f 69f
12:00 7 9 mph 1016.5mb 71f 69f
Mo 07/21 11:54 7 9 mph 1016.6mb 71f 69f
11:48 6 9 mph 1016.6mb 71f 69f
11:42 6 7 mph 1016.6mb 71f 69f
11:36 6 7 mph 1016.6mb 71f 69f
11:30 6 7 mph 1016.6mb 71f 69f
11:24 6 7 mph 1016.6mb 71f 69f
11:18 5 7 mph 1016.6mb 71f 69f
11:12 7 9 mph 1016.6mb 71f 69f
11:06 7 8 mph 1016.7mb 71f 69f
11:00 6 8 mph 1016.7mb 71f 69f
10:54 7 8 mph 1016.7mb 71f 69f
10:48 7 9 mph 1016.6mb 71f 69f
10:42 6 8 mph 1016.7mb 71f 69f
10:36 6
mph
1016.7mb 71f 69f
10:30 6 7 mph 1016.7mb 71f 69f
10:24 7 8 mph 1016.6mb 71f 69f
10:18 7 8 mph 1016.6mb 71f 69f
10:12 6 8 mph 1016.5mb 71f 69f
10:06 6 7 mph 1016.5mb 71f 69f
10:00 6
mph
1016.5mb 71f 69f
9:54 5 6 mph 1016.4mb 71f 69f
9:48 5 9 mph 1016.4mb 71f 69f
9:42 6 9 mph 1016.4mb 71f 69f
9:36 6 7 mph 1016.4mb 71f 69f
9:30 7 8 mph 1016.2mb 71f 69f
9:24 7 9 mph 1016.1mb 71f 69f
9:18 8
mph
1016.1mb 71f 69f
9:12 7 8 mph 1016mb 71f 69f
9:06 6 7 mph 1015.9mb 71f 69f
9:00 7 9 mph 1015.9mb 71f 69f
8:54 7 10 mph 1015.9mb 71f 70f
8:48 8 11 mph 1015.9mb 71f 70f